Архив погоды в Арзамасе

Метеограмма Арзамас
Четверг, 19 Октября
Время местн. Темп Ветер Видим Явления Облачность нижн/средн/верх Атм. давл. Влжн Точка росы ВНГО R Сост. почвы Tg s
Напр Скр Прв ур.ст ур.м изм
18:00 +4.5° З 3 9 4 км - облачно с прояснениями 749 761 +1 79% +1.2° 600 м 0 - - -
15:00 +7.9° З 5 7 20 км - облачно 748 759 +1.3 59% +0.4° 600 м - - - -
12:00 +7.7° З 7 12 20 км - преимущественно облачно 747 758 +1.4 58% 600 м - - - -
09:00 +6.2° З,С-З 4 8 20 км - облачно 745 757 +2.3 69% +0.9° 600 м - - - -
06:00 +7.5° З,С-З 4 12 4 км - переменная облачность 743 754 +1.7 72% +2.7° 600 м 0.3 Влажная (без луж) +5° -
03:00 +9.8° З 6 9 4 км - облачно 741 753 +0.1 79% +6.4° 600 м - - - -
00:00 +9.1° З,Ю-З 5 10 4 км - облачно 741 753 -0.2 91% +7.7° 600 м - - - -
Среда, 18 Октября
Время местн. Темп Ветер Видим Явления Облачность нижн/средн/верх Атм. давл. Влжн Точка росы ВНГО R Сост. почвы Tg s
Напр Скр Прв ур.ст ур.м изм
21:00 +10.6° З 6 8 4 км дождь облачно 742 753 +0.2 86% +8.4° 600 м - - - -
18:00 +10.7° З,Ю-З 6 10 4 км - преимущественно облачно 742 753 -0.2 82% +7.8° 600 м 2 - - -
15:00 +11.3° Ю-З 6 9 20 км небо без изменений {дождь} облачно 742 753 -1.2 79% +7.8° 600 м - - - -
12:00 +7.3° Ю-З 4 12 20 км небо без изменений {дождь} облачно 743 754 -1.4 87% +5.3° 600 м - - - -
09:00 +4.9° Ю,Ю-З 5 9 20 км слабый непрерывный дождь {ливневые осадки} облачно 744 756 -2.3 89% +3.2° - - - - -
06:00 +4.2° Ю,Ю-З 3 6 4 км ливневый дождь облачно с прояснениями 747 758 -1.1 90% +2.7° 600 м 0.6 Влажная (без луж) -
03:00 +2.4° З,Ю-З 2 4 4 км - облачно с прояснениями 748 759 -0.2 94% +1.6° 600 м - - - -
00:00 +2.5° З 2 5 4 км - ясно 748 759 +0.5 94% +1.7° более 2.5 км - - - -
Вторник, 17 Октября
Время местн. Темп Ветер Видим Явления Облачность нижн/средн/верх Атм. давл. Влжн Точка росы ВНГО R Сост. почвы Tg s
Напр Скр Прв ур.ст ур.м изм
21:00 +2.6° З 2 3 4 км небо без изменений {морось} преимущественно облачно 747 759 +0.6 96% +2.1° - - - - -
18:00 +6° З,Ю-З 2 5 4 км небо без изменений {морось} облачно 747 758 +0.9 95% +5.3° 600 м 0.7 - - -
15:00 +5.8° З,С-З 3 6 4 км слабая непрерывная морось {дождь} облачно 746 757 +0.7 97% +5.3° 600 м - - - -
12:00 +5.5° Ю-З 4 8 20 км - облачно 745 757 -1.1 83% +2.8° 600 м - - - -
09:00 +5.7° Ю-З 3 7 20 км - облачно 746 758 -0.5 86% +3.6° 600 м - - - -
06:00 +5.6° З 2 3 4 км - облачно 747 758 -0.7 97% +5.1° 600 м 0 Влажная (без луж) +4° -
03:00 +5.5° З 1 2 4 км - облачно 748 759 +0.1 95% +4.8° 600 м - - - -
00:00 +5.1° С-З 1 3 4 км - облачно 748 759 +0.2 95% +4.4° 600 м - - - -
Понедельник, 16 Октября
Время местн. Темп Ветер Видим Явления Облачность нижн/средн/верх Атм. давл. Влжн Точка росы ВНГО R Сост. почвы Tg s
Напр Скр Прв ур.ст ур.м изм
21:00 +5.2° З,С-З 1 2 4 км - переменная облачность 748 759 +0.9 88% +3.3° 600 м - - - -
18:00 +7° С 2 8 4 км - преимущественно облачно 747 758 +1.8 80% +3.8° 600 м 0 - - -
15:00 +7.5° С 3 5 20 км небо без изменений {дождь} облачно 745 756 +1.5 78% +4° 600 м - - - -